Report METAR

 

KSJC - San Jose, California, USA
Distance from station: NE 14km
Dati ricevuti: 11/08/2022 02:53
Sereno
Sereno
 Vento da NNO
Vento: NNO 30 km/h
Temperatura: 25°C
P.to Rugiada: 14°C
Umidità: 51%
Barometro: 1016.6 hPa
Nuvole: Sereno
Visibility: 16 km
2022/08/11 00:53 KSJC 110053Z 34016KT 10SM CLR 25/14 A3002 RMK AO2 SLP165 T02500139
KNUQ - Moffett Nas/Mtn, California, USA
Distance from station: N 14km
Dati ricevuti: 11/08/2022 03:35
Sereno
Sereno
 Vento da N
Vento: N 26 km/h
Temperatura: 23°C
P.to Rugiada: 16°C
Umidità: 65%
Barometro: 1016.6 hPa
Nuvole: Sereno
Visibility: 16 km
2022/08/11 01:35 KNUQ 110135Z AUTO 35014KT 10SM CLR 23/16 A3002 RMK AO2
KPAO - Palo Alto, California, USA
Distance from station: NNO 23km
Dati ricevuti: 11/08/2022 02:47
Sereno
Sereno
 Vento da NNO
Vento: NNO 28 km/h
Temperatura: 24°C
P.to Rugiada: 15°C
Umidità: 57%
Barometro: 1016.6 hPa
Nuvole: Sereno
Visibility: 16 km
2022/08/11 00:47 KPAO 110047Z 33015KT 10SM SKC 24/15 A3002
 
KRHV - San Jose/Reid, California, USA
Distance from station: ENE 19km
Dati ricevuti: 11/08/2022 02:47
Sereno
Sereno
 Vento da NO
Vento: NO 19 km/h
Temperatura: 27°C
Indice di Calore: 27°C
P.to Rugiada: 13°C
Umidità: 42%
Barometro: 1016.6 hPa
Nuvole: Sereno
Visibility: 16 km
2022/08/11 00:47 KRHV 110047Z 32010KT 10SM SKC 27/13 A3002
KOAK - Oakland, California, USA
Distance from station: NNO 50km
Dati ricevuti: 11/08/2022 02:53
Few Clouds
Few Clouds
 Vento da ONO
Vento: ONO 24 km/h
Temperatura: 23°C
P.to Rugiada: 14°C
Umidità: 57%
Barometro: 1017.3 hPa
Nuvole: Few Clouds
Visibility: 16 km
Cloud details: Few Clouds 305 m
2022/08/11 00:53 KOAK 110053Z 29013KT 10SM FEW010 23/14 A3004 RMK AO2 SLP173 T02330144
KSQL - San Carlos Airpo, California, USA
Distance from station: NO 34km
Dati ricevuti: 11/08/2022 02:56
Sereno
Sereno
 Vento da O
Vento: O 24 km/h
Temperatura: 24°C
P.to Rugiada: 14°C
Umidità: 54%
Barometro: 1016.9 hPa
Nuvole: Sereno
Visibility: 16 km
2022/08/11 00:56 KSQL 110056Z 26013KT 10SM CLR 24/14 A3003
 
KSFO - San Francisco, California, USA
Distance from station: NO 49km
Dati ricevuti: 11/08/2022 02:56
Few Clouds
Few Clouds
 Vento da O
Vento: O 39 km/h
Temperatura: 23°C
P.to Rugiada: 14°C
Umidità: 57%
Barometro: 1016.9 hPa
Nuvole: Few Clouds
Visibility: 16 km
Cloud details: Few Clouds 305 m
2022/08/11 00:56 KSFO 110056Z 28021KT 10SM FEW010 23/14 A3003 RMK AO2 PK WND 29031/2358 SLP170 T02280144
KE16 - San Martin, California, USA
Distance from station: ESE 43km
Dati ricevuti: 11/08/2022 03:35
Sereno
Sereno
 Vento da NO
Vento: NO 20 km/h, Raffica: 33 km/h
Temperatura: 27°C
Indice di Calore: 27°C
P.to Rugiada: 13°C
Umidità: 42%
Barometro: 1016.6 hPa
Nuvole: Sereno
Visibility: 16 km
2022/08/11 01:35 KE16 110135Z AUTO 32011G18KT 10SM CLR 27/13 A3002 RMK AO2 PWINO PNO
KWVI - Watsonville, California, USA
Distance from station: SSE 44km
Dati ricevuti: 11/08/2022 02:53
Sereno
Sereno
 Vento da SE
Vento: SE 13 km/h
Temperatura: 24°C
P.to Rugiada: 14°C
Umidità: 54%
Barometro: 1016.6 hPa
Nuvole: Sereno
Visibility: 16 km
2022/08/11 00:53 KWVI 110053Z AUTO 14007KT 10SM CLR 24/14 A3002 RMK AO2 SLP165 T02440144
 
KHAF - Half Moon Bay, California, USA
Distance from station: ONO 50km
Dati ricevuti: 11/08/2022 03:35
Few Clouds
Few Clouds
 Vento da NNO
Vento: NNO 24 km/h, Raffica: 35 km/h
Temperatura: 19°C
P.to Rugiada: 18°C
Umidità: 94%
Barometro: 1017.9 hPa
Nuvole: Few Clouds
Visibility: 14 km
Cloud details: Few Clouds 244 m
2022/08/11 01:35 KHAF 110135Z AUTO 34013G19KT 9SM FEW008 19/18 A3006 RMK AO2
KHWD - Hayward, California, USA
Distance from station: N 44km
Dati ricevuti: 11/08/2022 02:54
Sereno
Sereno
 Vento da O
Vento: O 26 km/h
Temperatura: 23°C
P.to Rugiada: 16°C
Umidità: 65%
Barometro: 1017.3 hPa
Nuvole: Sereno
Visibility: 16 km
2022/08/11 00:54 KHWD 110054Z 28014KT 10SM CLR 23/16 A3004 RMK AO2 SLP180 T02280156
KLVK - Livermore, California, USA
Distance from station: NNE 51km
Dati ricevuti: 11/08/2022 02:53
Sereno
Sereno
 Vento da O
Vento: O 26 km/h
Temperatura: 27°C
Indice di Calore: 27°C
P.to Rugiada: 13°C
Umidità: 42%
Barometro: 1016.3 hPa
Nuvole: Sereno
Visibility: 16 km
2022/08/11 00:53 KLVK 110053Z 27014KT 10SM CLR 27/13 A3001 RMK AO2 SLP157 T02670133